Island Chief — WDA7043 — position and weather

sailwx.info

Track history (hours):
 
Tides and Currents Weather Stations Pressure Air Temp Water Temp Dewpoint Dewpoint Depression Visibility Wind Speed Wind Dir Waves Ship Positions

Island Chief

Owner: Island Tug and Barge, SEATTLE, WA. More information available from US FCC via Universal Licensing System and Coast Guard Vessel Documentation Center.

Last reported at 2017-Oct-19 11:12 UTC. Time now 2017-Oct-19 13:17 UTC.
Position N 47°09' W 122°38'.

Length 21 m; draft 3 m.

Type: Towing. MMSI: 365798606.

Date/timePositionNaut miles runAvg speedWind from/ knotsBaromVisibWave heightAir tempDewpointWater temp
2017-Oct-19 11:12N 47°09' W 122°38'0 0.0
2017-Oct-19 10:44N 47°09' W 122°38'0 1.9
2017-Oct-19 10:28N 47°09' W 122°39'3 7.2
2017-Oct-19 10:00N 47°12' W 122°36'611.2
2017-Oct-19 09:30N 47°17' W 122°33'5 9.1
2017-Oct-19 09:00N 47°22' W 122°32'4 7.1
2017-Oct-19 08:30N 47°25' W 122°32'4 7.1
2017-Oct-19 08:00N 47°29' W 122°30'3 7.0
2017-Oct-19 07:30N 47°32' W 122°28'4 7.4
2017-Oct-19 07:00N 47°35' W 122°27'4 7.2
2017-Oct-19 06:30N 47°39' W 122°27'3 5.1
2017-Oct-19 06:00N 47°40' W 122°24'2 3.1
2017-Oct-19 05:30N 47°39' W 122°22'3 5.4
2017-Oct-19 05:00N 47°39' W 122°18'3 5.7
2017-Oct-19 04:30N 47°41' W 122°15'3 6.1
2017-Oct-19 04:00N 47°44' W 122°16'2 4.0
2017-Oct-19 03:30N 47°45' W 122°15'0 0.6
2017-Oct-19 03:00N 47°45' W 122°16'3 6.4
2017-Oct-19 02:30N 47°42' W 122°15'3 6.6
2017-Oct-19 02:00N 47°39' W 122°16'2 4.9
2017-Oct-19 01:30N 47°39' W 122°20'3 5.1
2017-Oct-19 01:00N 47°40' W 122°23'0 0.3
2017-Oct-19 00:30N 47°40' W 122°24'0 0.0
2017-Oct-19 00:00N 47°40' W 122°24'0 0.0
2017-Oct-18 23:30N 47°40' W 122°24'0 0.2
2017-Oct-18 23:00N 47°40' W 122°24'1 2.2
2017-Oct-18 22:30N 47°41' W 122°25'3 5.9
2017-Oct-18 22:00N 47°38' W 122°27'4 7.0
2017-Oct-18 21:30N 47°34' W 122°27'3 6.5
2017-Oct-18 21:00N 47°31' W 122°29'4 7.1
2017-Oct-18 20:30N 47°28' W 122°31'3 7.0
2017-Oct-18 20:00N 47°25' W 122°32'4 7.3
2017-Oct-18 19:30N 47°21' W 122°33'3 6.2
2017-Oct-18 19:00N 47°18' W 122°32'3 6.6
2017-Oct-18 18:30N 47°15' W 122°34'4 7.5
2017-Oct-18 17:57N 47°11' W 122°37'3 5.6
2017-Oct-18 17:21N 47°08' W 122°39'0 0.0
2017-Oct-18 16:51N 47°08' W 122°39'0 0.0
2017-Oct-18 16:22N 47°08' W 122°39'0 0.0
2017-Oct-18 15:55N 47°08' W 122°39'0 0.0
2017-Oct-18 15:20N 47°08' W 122°39'0 0.0
2017-Oct-18 14:58N 47°08' W 122°39'1 0.6
2017-Oct-18 13:58N 47°09' W 122°38'0 0.0
2017-Oct-18 13:30N 47°09' W 122°38'0 0.0
2017-Oct-18 12:50N 47°09' W 122°38'0 0.0
2017-Oct-18 12:15N 47°09' W 122°38'0 0.0
2017-Oct-18 10:47N 47°09' W 122°38'0 0.0
2017-Oct-18 10:23N 47°09' W 122°38'0 0.0
2017-Oct-18 09:13N 47°09' W 122°38'0 0.0
2017-Oct-18 08:58N 47°09' W 122°38'0 0.1
2017-Oct-18 08:25N 47°09' W 122°38'0 0.0
2017-Oct-18 08:00N 47°09' W 122°38'1 2.8
2017-Oct-18 07:30N 47°10' W 122°38'4 7.7
2017-Oct-18 07:00N 47°13' W 122°35'4 8.0
2017-Oct-18 06:30N 47°17' W 122°33'4 7.1
2017-Oct-18 06:00N 47°20' W 122°33'3 6.1
2017-Oct-18 05:30N 47°23' W 122°32'3 6.8
2017-Oct-18 05:00N 47°27' W 122°31'3 6.4
2017-Oct-18 04:30N 47°30' W 122°30'3 6.8
2017-Oct-18 04:00N 47°33' W 122°28'4 7.4
2017-Oct-18 03:30N 47°37' W 122°28'4 7.3
2017-Oct-18 03:00N 47°40' W 122°26'2 3.1
2017-Oct-18 02:30N 47°40' W 122°24'3 5.7
2017-Oct-18 02:00N 47°39' W 122°20'3 6.5
2017-Oct-18 01:28N 47°40' W 122°15'4 7.8
2017-Oct-18 01:00N 47°44' W 122°16'1 2.8
2017-Oct-18 00:30N 47°45' W 122°16'0 0.1
2017-Oct-18 00:00N 47°45' W 122°16'3 5.2
2017-Oct-17 23:30N 47°42' W 122°16'3 5.7
2017-Oct-17 23:00N 47°40' W 122°15'3 5.2
2017-Oct-17 22:29N 47°39' W 122°19'2 4.0
2017-Oct-17 22:00N 47°39' W 122°22'1 2.8
2017-Oct-17 21:30N 47°40' W 122°24'0 0.4
2017-Oct-17 21:00N 47°40' W 122°24'0 0.4
2017-Oct-17 20:30N 47°40' W 122°24'1 2.4
2017-Oct-17 20:00N 47°40' W 122°26'3 6.2
2017-Oct-17 19:30N 47°37' W 122°27'3 6.7
2017-Oct-17 19:00N 47°34' W 122°26'3 6.6
2017-Oct-17 18:30N 47°31' W 122°29'4 7.8
2017-Oct-17 18:00N 47°27' W 122°31'4 7.7
2017-Oct-17 17:30N 47°24' W 122°32'4 7.8
2017-Oct-17 17:00N 47°20' W 122°33'4 8.4
2017-Oct-17 16:30N 47°16' W 122°34'4 8.4
2017-Oct-17 16:00N 47°12' W 122°36'4 7.2
2017-Oct-17 15:26N 47°08' W 122°39'0 0.3
2017-Oct-17 15:00N 47°08' W 122°39'0 0.0
2017-Oct-17 14:30N 47°08' W 122°39'0 0.1
2017-Oct-17 14:00N 47°08' W 122°39'0 0.0
2017-Oct-17 13:29N 47°08' W 122°39'0 0.0
2017-Oct-17 13:00N 47°08' W 122°39'0 0.4
2017-Oct-17 12:23N 47°08' W 122°39'3 7.3
2017-Oct-17 12:00N 47°11' W 122°38'4 7.8
2017-Oct-17 11:30N 47°14' W 122°35'4 8.3
2017-Oct-17 11:00N 47°18' W 122°33'4 8.1
2017-Oct-17 10:30N 47°22' W 122°32'4 7.5
2017-Oct-17 10:00N 47°26' W 122°32'4 7.8
2017-Oct-17 09:30N 47°30' W 122°30'4 7.9
2017-Oct-17 09:00N 47°33' W 122°28'4 7.9
2017-Oct-17 08:30N 47°37' W 122°28'4 7.4
2017-Oct-17 08:00N 47°41' W 122°26'2 3.1
2017-Oct-17 07:30N 47°40' W 122°24'2 4.7
2017-Oct-17 07:01N 47°39' W 122°21'2 4.0
2017-Oct-17 06:30N 47°39' W 122°18'3 5.7
2017-Oct-17 06:00N 47°41' W 122°14'3 6.7
2017-Oct-17 05:30N 47°44' W 122°16'2 3.3
2017-Oct-17 05:00N 47°45' W 122°15'0 0.7
2017-Oct-17 04:30N 47°45' W 122°16'3 5.6
2017-Oct-17 04:00N 47°42' W 122°15'3 6.2
2017-Oct-17 03:29N 47°39' W 122°16'2 4.7
2017-Oct-17 02:59N 47°39' W 122°19'2 4.0
2017-Oct-17 02:30N 47°39' W 122°22'1 2.5
2017-Oct-17 02:00N 47°40' W 122°24'2 3.4
2017-Oct-17 01:30N 47°40' W 122°26'4 8.1
2017-Oct-17 01:00N 47°36' W 122°26'4 8.0
2017-Oct-17 00:30N 47°32' W 122°28'4 8.3
2017-Oct-17 00:00N 47°28' W 122°31'4 8.3
2017-Oct-16 23:30N 47°24' W 122°32'4 7.7
2017-Oct-16 23:00N 47°20' W 122°33'3 6.4
2017-Oct-16 22:30N 47°17' W 122°33'4 7.2
2017-Oct-16 22:00N 47°14' W 122°34'3 6.3
2017-Oct-16 21:29N 47°11' W 122°37'3 5.6
2017-Oct-16 20:55N 47°08' W 122°39'1 0.3
2017-Oct-16 19:01N 47°09' W 122°38'0 0.1
2017-Oct-16 18:30N 47°09' W 122°38'0 0.0
2017-Oct-16 17:49N 47°09' W 122°38'0 0.0
2017-Oct-16 17:30N 47°09' W 122°38'0 0.1
2017-Oct-16 17:00N 47°09' W 122°38'3 6.7
2017-Oct-16 16:30N 47°12' W 122°37'4 7.7
2017-Oct-16 16:00N 47°15' W 122°34'3 5.9
2017-Oct-16 15:30N 47°18' W 122°33'3 6.2
2017-Oct-16 15:00N 47°21' W 122°33'7 6.8
2017-Oct-16 14:00N 47°28' W 122°31'3 6.9
2017-Oct-16 13:30N 47°31' W 122°29'4 7.3
2017-Oct-16 13:00N 47°34' W 122°28'4 7.5
2017-Oct-16 12:31N 47°38' W 122°28'3 6.0
2017-Oct-16 12:00N 47°40' W 122°24'1 2.9
2017-Oct-16 11:30N 47°40' W 122°23'2 4.1
2017-Oct-16 11:00N 47°39' W 122°20'3 5.9
2017-Oct-16 10:30N 47°40' W 122°15'4 8.0
2017-Oct-16 10:00N 47°44' W 122°16'2 3.6
2017-Oct-16 09:30N 47°45' W 122°15'0 0.0
2017-Oct-16 09:00N 47°45' W 122°15'1 2.2
2017-Oct-16 08:30N 47°44' W 122°16'4 7.2
2017-Oct-16 08:00N 47°41' W 122°14'3 6.3
2017-Oct-16 07:30N 47°39' W 122°18'2 4.4
2017-Oct-16 07:00N 47°39' W 122°21'2 4.3
2017-Oct-16 06:30N 47°40' W 122°24'1 2.2
2017-Oct-16 06:00N 47°41' W 122°25'3 5.3
2017-Oct-16 05:30N 47°38' W 122°25'3 6.7
2017-Oct-16 05:00N 47°35' W 122°22'1 1.8
2017-Oct-16 04:20N 47°34' W 122°21'0 0.0
2017-Oct-16 03:59N 47°34' W 122°21'0 0.0
2017-Oct-16 03:23N 47°34' W 122°21'0 0.0
2017-Oct-16 03:00N 47°34' W 122°21'0 0.0
2017-Oct-16 02:29N 47°34' W 122°21'0 0.0
2017-Oct-16 02:00N 47°34' W 122°21'0 0.0
2017-Oct-16 01:28N 47°34' W 122°21'0 0.0
2017-Oct-16 00:54N 47°34' W 122°21'0 0.0
2017-Oct-16 00:26N 47°34' W 122°21'0 0.0
2017-Oct-15 23:49N 47°34' W 122°21'0 0.0
2017-Oct-15 23:29N 47°34' W 122°21'0 0.0
2017-Oct-15 22:59N 47°34' W 122°21'0 0.0
2017-Oct-15 22:26N 47°34' W 122°21'0 0.0
2017-Oct-15 22:00N 47°34' W 122°21'0 0.0
2017-Oct-15 21:30N 47°34' W 122°21'0 0.0
2017-Oct-15 21:00N 47°34' W 122°21'0 0.0
2017-Oct-15 20:30N 47°34' W 122°21'0 0.0
2017-Oct-15 19:59N 47°34' W 122°21'0 0.0
2017-Oct-15 19:30N 47°34' W 122°21'0 0.0
2017-Oct-15 19:00N 47°34' W 122°21'0 0.0
2017-Oct-15 18:25N 47°34' W 122°21'0 0.0
2017-Oct-15 18:01N 47°34' W 122°21'0 0.0
2017-Oct-15 17:30N 47°34' W 122°21'0 0.0
2017-Oct-15 17:00N 47°34' W 122°21'0 0.0
2017-Oct-15 16:28N 47°34' W 122°21'0 0.0
2017-Oct-15 16:00N 47°34' W 122°21'0 0.0
2017-Oct-15 15:29N 47°34' W 122°21'0 0.0
2017-Oct-15 15:00N 47°34' W 122°21'0 0.0
2017-Oct-15 14:00N 47°34' W 122°21'0 0.0
2017-Oct-15 13:30N 47°34' W 122°21'0 0.0
2017-Oct-15 13:01N 47°34' W 122°21'0 0.0
2017-Oct-15 12:30N 47°34' W 122°21'0 0.0
2017-Oct-15 12:01N 47°34' W 122°21'0 0.0
2017-Oct-15 11:31N 47°34' W 122°21'0 0.0
2017-Oct-15 11:00N 47°34' W 122°21'0 0.0
2017-Oct-15 10:29N 47°34' W 122°21'0 0.0
2017-Oct-15 10:01N 47°34' W 122°21'0 0.0
2017-Oct-15 09:31N 47°34' W 122°21'0 0.0
2017-Oct-15 09:00N 47°34' W 122°21'0 0.0
2017-Oct-15 08:30N 47°34' W 122°21'0 0.0
2017-Oct-15 08:00N 47°34' W 122°21'0 0.0
2017-Oct-15 07:30N 47°34' W 122°21'0 0.0
2017-Oct-15 07:00N 47°34' W 122°21'0 0.0
2017-Oct-15 06:30N 47°34' W 122°21'0 0.0
2017-Oct-15 06:00N 47°34' W 122°21'0 0.0
2017-Oct-15 05:30N 47°34' W 122°21'0 0.0
2017-Oct-15 05:00N 47°34' W 122°21'0 0.0
2017-Oct-15 04:28N 47°34' W 122°21'0 0.0
2017-Oct-15 04:00N 47°34' W 122°21'0 0.0
2017-Oct-15 03:27N 47°34' W 122°21'0 0.0
2017-Oct-15 02:59N 47°34' W 122°21'0 0.0
2017-Oct-15 02:30N 47°34' W 122°21'0 0.0
2017-Oct-15 02:00N 47°34' W 122°21'0 0.0
2017-Oct-15 01:30N 47°34' W 122°21'0 0.0
2017-Oct-15 01:00N 47°34' W 122°21'0 0.0
2017-Oct-15 00:30N 47°34' W 122°21'0 0.0
2017-Oct-15 00:00N 47°34' W 122°21'0 0.0
2017-Oct-14 23:30N 47°34' W 122°21'0 0.0
2017-Oct-14 23:00N 47°34' W 122°21'0 0.0
2017-Oct-14 22:30N 47°34' W 122°21'0 0.0
2017-Oct-14 22:00N 47°34' W 122°21'0 0.0
2017-Oct-14 21:30N 47°34' W 122°21'0 0.0
2017-Oct-14 21:00N 47°34' W 122°21'0 0.0
2017-Oct-14 20:30N 47°34' W 122°21'0 0.0
2017-Oct-14 20:01N 47°34' W 122°21'0 0.0
2017-Oct-14 19:31N 47°34' W 122°21'0 0.0
2017-Oct-14 19:00N 47°34' W 122°21'0 0.0
2017-Oct-14 18:30N 47°34' W 122°21'0 0.0
2017-Oct-14 18:00N 47°34' W 122°21'0 0.0
2017-Oct-14 17:28N 47°34' W 122°21'0 0.0
2017-Oct-14 17:00N 47°34' W 122°21'0 0.0
2017-Oct-14 16:22N 47°34' W 122°21'0 0.0
2017-Oct-14 16:00N 47°34' W 122°21'0 0.0
2017-Oct-14 15:30N 47°34' W 122°21'0 0.0
2017-Oct-14 14:58N 47°34' W 122°21'0 0.0
2017-Oct-14 14:30N 47°34' W 122°21'0 0.0
2017-Oct-14 14:00N 47°34' W 122°21'0 0.0
2017-Oct-14 13:31N 47°34' W 122°21'0 0.0
2017-Oct-14 13:00N 47°34' W 122°21'0 0.0
2017-Oct-14 12:30N 47°34' W 122°21'0 0.2
2017-Oct-14 12:01N 47°34' W 122°21'1 2.6
2017-Oct-14 11:30N 47°33' W 122°21'1 1.1
2017-Oct-14 11:00N 47°33' W 122°20'1 2.6
2017-Oct-14 10:30N 47°34' W 122°21'0 0.5
2017-Oct-14 10:00N 47°34' W 122°21'2 4.2
2017-Oct-14 09:30N 47°36' W 122°23'1 1.3
2017-Oct-14 09:01N 47°35' W 122°22'1 2.4
2017-Oct-14 08:31N 47°34' W 122°21'2 3.5
2017-Oct-14 08:00N 47°33' W 122°20'0 0.0
2017-Oct-14 07:30N 47°33' W 122°20'0 0.0
2017-Oct-14 07:00N 47°33' W 122°20'2 3.4
2017-Oct-14 06:31N 47°34' W 122°21'0 0.2
2017-Oct-14 06:00N 47°34' W 122°21'0 0.5
2017-Oct-14 05:31N 47°34' W 122°21'1 2.0
2017-Oct-14 05:00N 47°33' W 122°21'1 1.3
2017-Oct-14 04:30N 47°34' W 122°21'1 1.2
2017-Oct-14 04:00N 47°34' W 122°21'2 3.6
2017-Oct-14 03:30N 47°36' W 122°23'4 8.7
2017-Oct-14 03:00N 47°39' W 122°27'2 4.0
2017-Oct-14 02:31N 47°40' W 122°24'2 3.3
2017-Oct-14 02:00N 47°39' W 122°22'5 5.0
2017-Oct-14 00:58N 47°42' W 122°15'4 6.3
2017-Oct-14 00:24N 47°45' W 122°15'1 1.2
2017-Oct-13 23:34N 47°45' W 122°16'2 6.9
2017-Oct-13 23:17N 47°43' W 122°16'2 7.3
2017-Oct-13 23:00N 47°41' W 122°14'3 6.3
2017-Oct-13 22:30N 47°39' W 122°18'2 4.2
2017-Oct-13 22:00N 47°39' W 122°21'2 4.0
2017-Oct-13 21:31N 47°40' W 122°24'2 3.4
2017-Oct-13 21:00N 47°40' W 122°26'4 7.6
2017-Oct-13 20:31N 47°36' W 122°27'4 7.3
2017-Oct-13 20:00N 47°33' W 122°28'4 7.6
2017-Oct-13 19:30N 47°29' W 122°30'4 7.4
2017-Oct-13 19:00N 47°26' W 122°31'4 7.7
2017-Oct-13 18:31N 47°22' W 122°32'3 6.5
2017-Oct-13 18:00N 47°18' W 122°33'3 5.6
2017-Oct-13 17:30N 47°16' W 122°34'3 5.8
2017-Oct-13 17:00N 47°13' W 122°35'3 6.8
2017-Oct-13 16:30N 47°10' W 122°38'2 4.3
2017-Oct-13 16:00N 47°08' W 122°39'0 0.0
2017-Oct-13 15:30N 47°08' W 122°39'0 0.0
2017-Oct-13 14:37N 47°08' W 122°39'0 0.0
2017-Oct-13 13:57N 47°08' W 122°39'0 1.0
2017-Oct-13 13:29N 47°09' W 122°38'3 5.7
2017-Oct-13 13:01N 47°11' W 122°37'3 6.4
2017-Oct-13 12:31N 47°14' W 122°35'3 5.5
2017-Oct-13 12:00N 47°16' W 122°33'3 5.0
2017-Oct-13 11:30N 47°19' W 122°33'2 4.9
2017-Oct-13 11:01N 47°21' W 122°33'3 6.6
2017-Oct-13 10:30N 47°24' W 122°32'3 6.8
2017-Oct-13 10:01N 47°28' W 122°31'3 6.9
2017-Oct-13 09:30N 47°31' W 122°29'3 6.9
2017-Oct-13 09:00N 47°34' W 122°28'4 7.1
2017-Oct-13 08:30N 47°38' W 122°29'3 6.8
2017-Oct-13 08:00N 47°41' W 122°26'2 3.3
2017-Oct-13 07:30N 47°40' W 122°24'2 4.9
2017-Oct-13 07:00N 47°39' W 122°20'3 5.2
2017-Oct-13 06:31N 47°39' W 122°17'3 6.9
2017-Oct-13 06:00N 47°42' W 122°15'3 5.8
2017-Oct-13 05:30N 47°45' W 122°16'0 0.4
2017-Oct-13 05:00N 47°45' W 122°16'0 0.1
2017-Oct-13 04:30N 47°45' W 122°16'3 5.6
2017-Oct-13 04:00N 47°42' W 122°15'3 6.3
2017-Oct-13 03:30N 47°39' W 122°16'2 4.7
2017-Oct-13 03:00N 47°39' W 122°20'2 4.2
2017-Oct-13 02:30N 47°40' W 122°23'1 2.1
2017-Oct-13 01:57N 47°40' W 122°24'1 2.5
2017-Oct-13 01:30N 47°40' W 122°26'4 7.1
2017-Oct-13 01:00N 47°37' W 122°27'4 7.2
2017-Oct-13 00:31N 47°33' W 122°28'4 7.6
2017-Oct-13 00:00N 47°30' W 122°29'4 8.2
2017-Oct-12 23:30N 47°26' W 122°31'4 7.9
2017-Oct-12 23:00N 47°22' W 122°32'4 8.2
2017-Oct-12 22:30N 47°18' W 122°33'4 9.0
2017-Oct-12 22:00N 47°14' W 122°35'6 7.5
2017-Oct-12 21:12N 47°08' W 122°39'0 0.8
2017-Oct-12 20:59N 47°08' W 122°39'0 0.0
2017-Oct-12 20:25N 47°08' W 122°39'0 0.0
2017-Oct-12 20:00N 47°08' W 122°39'0 0.1
2017-Oct-12 19:28N 47°08' W 122°39'0 0.0
2017-Oct-12 18:57N 47°08' W 122°39'0 0.0
2017-Oct-12 18:02N 47°08' W 122°39'0 0.3
2017-Oct-12 17:44N 47°08' W 122°39'1 3.1
2017-Oct-12 17:27N 47°09' W 122°39'4 8.0
2017-Oct-12 17:00N 47°12' W 122°36'611.3
2017-Oct-12 16:30N 47°17' W 122°33'5 9.1
2017-Oct-12 16:00N 47°22' W 122°32'4 7.7
2017-Oct-12 15:31N 47°26' W 122°32'4 8.1
2017-Oct-12 15:00N 47°29' W 122°30'4 8.4
2017-Oct-12 14:31N 47°33' W 122°28'4 8.6
2017-Oct-12 14:00N 47°38' W 122°28'3 6.8
2017-Oct-12 13:31N 47°41' W 122°25'1 2.2
2017-Oct-12 13:00N 47°40' W 122°23'3 5.0
2017-Oct-12 12:30N 47°39' W 122°20'3 5.5
2017-Oct-12 12:00N 47°39' W 122°16'4 7.0
2017-Oct-12 11:30N 47°42' W 122°16'3 5.4
2017-Oct-12 10:57N 47°45' W 122°15'0 1.1
2017-Oct-12 10:30N 47°45' W 122°16'0 0.1
2017-Oct-12 10:00N 47°45' W 122°16'3 6.0
2017-Oct-12 09:30N 47°42' W 122°15'3 6.4
2017-Oct-12 09:00N 47°39' W 122°16'2 5.0
2017-Oct-12 08:30N 47°39' W 122°20'2 4.3
2017-Oct-12 08:00N 47°40' W 122°23'1 1.9
2017-Oct-12 07:31N 47°40' W 122°24'2 3.2
2017-Oct-12 07:01N 47°40' W 122°26'4 7.6
2017-Oct-12 06:30N 47°37' W 122°24'2 3.6
2017-Oct-12 06:00N 47°35' W 122°22'0 0.0
2017-Oct-12 05:30N 47°35' W 122°22'0 0.0
2017-Oct-12 05:00N 47°35' W 122°22'1 1.8
2017-Oct-12 04:30N 47°34' W 122°21'0 0.0
2017-Oct-12 04:00N 47°34' W 122°21'0 0.0
2017-Oct-12 03:30N 47°34' W 122°21'0 0.0
2017-Oct-12 02:59N 47°34' W 122°21'0 0.0
2017-Oct-12 02:30N 47°34' W 122°21'0 0.0
2017-Oct-12 02:00N 47°34' W 122°21'0 0.0
2017-Oct-12 01:30N 47°34' W 122°21'0 0.0
2017-Oct-12 01:00N 47°34' W 122°21'0 0.0
2017-Oct-12 00:30N 47°34' W 122°21'0 0.0
2017-Oct-12 00:00N 47°34' W 122°21'0 0.4
2017-Oct-11 23:30N 47°34' W 122°21'0 0.4
2017-Oct-11 23:00N 47°34' W 122°21'0 0.0
2017-Oct-11 22:31N 47°34' W 122°21'1 1.1
2017-Oct-11 22:00N 47°35' W 122°22'0 0.8
2017-Oct-11 21:31N 47°35' W 122°22'2 3.2
2017-Oct-11 21:00N 47°36' W 122°24'3 6.9
2017-Oct-11 20:31N 47°33' W 122°27'4 7.5
2017-Oct-11 20:01N 47°29' W 122°30'4 7.9
2017-Oct-11 19:30N 47°25' W 122°31'4 7.4
2017-Oct-11 19:01N 47°22' W 122°32'4 7.0
2017-Oct-11 18:30N 47°18' W 122°33'3 6.4
2017-Oct-11 18:00N 47°15' W 122°34'3 6.0
2017-Oct-11 17:30N 47°12' W 122°36'3 6.8
2017-Oct-11 17:00N 47°10' W 122°38'32 1.9
2017-Oct-11 00:00N 47°40' W 122°24'0 0.6
2017-Oct-10 23:30N 47°40' W 122°23'0 0.0
2017-Oct-10 23:01N 47°40' W 122°23'1 1.1
2017-Oct-10 22:30N 47°40' W 122°24'1 2.9
2017-Oct-10 22:01N 47°40' W 122°26'3 6.8
2017-Oct-10 21:30N 47°37' W 122°27'4 7.1
2017-Oct-10 21:01N 47°34' W 122°27'4 7.5
2017-Oct-10 20:30N 47°30' W 122°29'4 8.0
2017-Oct-10 20:00N 47°26' W 122°31'4 7.6
2017-Oct-10 19:31N 47°23' W 122°32'4 7.7
2017-Oct-10 19:00N 47°19' W 122°33'4 8.0
2017-Oct-10 18:28N 47°15' W 122°34'4 7.6
2017-Oct-10 18:00N 47°12' W 122°37'4 5.9
2017-Oct-10 17:22N 47°08' W 122°39'0 0.0
2017-Oct-10 16:51N 47°08' W 122°39'0 0.1
2017-Oct-10 16:18N 47°08' W 122°39'0 0.0
2017-Oct-10 15:57N 47°08' W 122°39'0 0.1
2017-Oct-10 15:29N 47°08' W 122°39'0 0.2
2017-Oct-10 15:00N 47°08' W 122°39'0 0.4
2017-Oct-10 13:55N 47°09' W 122°38'0 0.1
2017-Oct-10 13:30N 47°09' W 122°38'0 0.1
2017-Oct-10 12:53N 47°09' W 122°38'0 0.0
2017-Oct-10 12:30N 47°09' W 122°38'0 0.1
2017-Oct-10 11:58N 47°09' W 122°38'2 4.1
2017-Oct-10 11:30N 47°11' W 122°38'4 7.7
2017-Oct-10 11:00N 47°14' W 122°35'4 8.2
2017-Oct-10 10:29N 47°18' W 122°33'3 6.5
2017-Oct-10 10:00N 47°21' W 122°33'3 6.1
2017-Oct-10 09:31N 47°24' W 122°32'3 6.4
2017-Oct-10 09:00N 47°27' W 122°32'3 6.5
2017-Oct-10 08:30N 47°30' W 122°30'3 6.8
2017-Oct-10 08:01N 47°33' W 122°28'4 7.8
2017-Oct-10 07:30N 47°37' W 122°28'4 7.7
2017-Oct-10 07:01N 47°41' W 122°26'1 3.0
2017-Oct-10 06:30N 47°40' W 122°24'2 4.9
2017-Oct-10 06:00N 47°39' W 122°21'2 4.9
2017-Oct-10 05:30N 47°39' W 122°17'4 7.0
2017-Oct-10 05:00N 47°42' W 122°15'3 5.9
2017-Oct-10 04:30N 47°45' W 122°16'0 0.2
2017-Oct-10 04:00N 47°45' W 122°16'0 0.1
2017-Oct-10 03:29N 47°45' W 122°16'3 5.4
2017-Oct-10 02:59N 47°42' W 122°15'3 6.3
2017-Oct-10 02:30N 47°39' W 122°16'2 5.0
2017-Oct-10 02:00N 47°39' W 122°19'2 4.1
2017-Oct-10 01:30N 47°39' W 122°22'1 2.4
2017-Oct-10 01:01N 47°40' W 122°24'2 3.8
2017-Oct-10 00:31N 47°39' W 122°27'4 7.2
2017-Oct-10 00:00N 47°36' W 122°26'4 7.1
2017-Oct-09 23:31N 47°32' W 122°27'4 7.6
2017-Oct-09 23:00N 47°29' W 122°30'4 7.6
2017-Oct-09 22:30N 47°25' W 122°31'4 7.7
2017-Oct-09 22:00N 47°21' W 122°32'4 7.6
2017-Oct-09 21:28N 47°17' W 122°33'4 8.5
2017-Oct-09 21:00N 47°14' W 122°35'4 8.0
2017-Oct-09 20:30N 47°10' W 122°38'2 3.3
2017-Oct-09 19:47N 47°08' W 122°39'0 0.0
2017-Oct-09 19:27N 47°08' W 122°39'0 0.0
2017-Oct-09 18:35N 47°08' W 122°39'0 0.2
2017-Oct-09 18:21N 47°08' W 122°39'0 0.0
2017-Oct-09 18:00N 47°08' W 122°39'0 0.7
2017-Oct-09 17:29N 47°08' W 122°38'4 7.6
2017-Oct-09 17:00N 47°12' W 122°36'4 8.1
2017-Oct-09 16:30N 47°16' W 122°34'4 7.3
2017-Oct-09 16:00N 47°19' W 122°34'4 8.5
2017-Oct-09 15:30N 47°23' W 122°32'4 8.0
2017-Oct-09 15:01N 47°27' W 122°31'4 8.7
2017-Oct-09 14:30N 47°31' W 122°29'5 9.3
2017-Oct-09 14:00N 47°35' W 122°25'2 4.8
2017-Oct-09 13:31N 47°35' W 122°22'1 2.7
2017-Oct-09 13:00N 47°34' W 122°21'1 2.3
2017-Oct-09 12:31N 47°33' W 122°20'0 0.2
2017-Oct-09 12:01N 47°33' W 122°20'1 1.7
2017-Oct-09 11:30N 47°34' W 122°21'  
Track history (hours):
 
Tides and Currents Weather Stations Pressure Air Temp Water Temp Dewpoint Dewpoint Depression Visibility Wind Speed Wind Dir Waves Ship Positions

Island Chief

Owner: Island Tug and Barge, SEATTLE, WA. More information available from US FCC via Universal Licensing System and Coast Guard Vessel Documentation Center.

Last reported at 2017-Oct-19 11:12 UTC. Time now 2017-Oct-19 13:17 UTC.
Position N 47°09' W 122°38'.

Length 21 m; draft 3 m.

Type: Towing. MMSI: 365798606.

Date/timePositionNaut miles runAvg speedWind from/ knotsBaromVisibWave heightAir tempDewpointWater temp
2017-Oct-19 11:12N 47°09' W 122°38'0 0.0
2017-Oct-19 10:44N 47°09' W 122°38'0 1.9
2017-Oct-19 10:28N 47°09' W 122°39'3 7.2
2017-Oct-19 10:00N 47°12' W 122°36'611.2
2017-Oct-19 09:30N 47°17' W 122°33'5 9.1
2017-Oct-19 09:00N 47°22' W 122°32'4 7.1
2017-Oct-19 08:30N 47°25' W 122°32'4 7.1
2017-Oct-19 08:00N 47°29' W 122°30'3 7.0
2017-Oct-19 07:30N 47°32' W 122°28'4 7.4
2017-Oct-19 07:00N 47°35' W 122°27'4 7.2
2017-Oct-19 06:30N 47°39' W 122°27'3 5.1
2017-Oct-19 06:00N 47°40' W 122°24'2 3.1
2017-Oct-19 05:30N 47°39' W 122°22'3 5.4
2017-Oct-19 05:00N 47°39' W 122°18'3 5.7
2017-Oct-19 04:30N 47°41' W 122°15'3 6.1
2017-Oct-19 04:00N 47°44' W 122°16'2 4.0
2017-Oct-19 03:30N 47°45' W 122°15'0 0.6
2017-Oct-19 03:00N 47°45' W 122°16'3 6.4
2017-Oct-19 02:30N 47°42' W 122°15'3 6.6
2017-Oct-19 02:00N 47°39' W 122°16'2 4.9
2017-Oct-19 01:30N 47°39' W 122°20'3 5.1
2017-Oct-19 01:00N 47°40' W 122°23'0 0.3
2017-Oct-19 00:30N 47°40' W 122°24'0 0.0
2017-Oct-19 00:00N 47°40' W 122°24'0 0.0
2017-Oct-18 23:30N 47°40' W 122°24'0 0.2
2017-Oct-18 23:00N 47°40' W 122°24'1 2.2
2017-Oct-18 22:30N 47°41' W 122°25'3 5.9
2017-Oct-18 22:00N 47°38' W 122°27'4 7.0
2017-Oct-18 21:30N 47°34' W 122°27'3 6.5
2017-Oct-18 21:00N 47°31' W 122°29'4 7.1
2017-Oct-18 20:30N 47°28' W 122°31'3 7.0
2017-Oct-18 20:00N 47°25' W 122°32'4 7.3
2017-Oct-18 19:30N 47°21' W 122°33'3 6.2
2017-Oct-18 19:00N 47°18' W 122°32'3 6.6
2017-Oct-18 18:30N 47°15' W 122°34'4 7.5
2017-Oct-18 17:57N 47°11' W 122°37'3 5.6
2017-Oct-18 17:21N 47°08' W 122°39'0 0.0
2017-Oct-18 16:51N 47°08' W 122°39'0 0.0
2017-Oct-18 16:22N 47°08' W 122°39'0 0.0
2017-Oct-18 15:55N 47°08' W 122°39'0 0.0
2017-Oct-18 15:20N 47°08' W 122°39'0 0.0
2017-Oct-18 14:58N 47°08' W 122°39'1 0.6
2017-Oct-18 13:58N 47°09' W 122°38'0 0.0
2017-Oct-18 13:30N 47°09' W 122°38'0 0.0
2017-Oct-18 12:50N 47°09' W 122°38'0 0.0
2017-Oct-18 12:15N 47°09' W 122°38'0 0.0
2017-Oct-18 10:47N 47°09' W 122°38'0 0.0
2017-Oct-18 10:23N 47°09' W 122°38'0 0.0
2017-Oct-18 09:13N 47°09' W 122°38'0 0.0
2017-Oct-18 08:58N 47°09' W 122°38'0 0.1
2017-Oct-18 08:25N 47°09' W 122°38'0 0.0
2017-Oct-18 08:00N 47°09' W 122°38'1 2.8
2017-Oct-18 07:30N 47°10' W 122°38'4 7.7
2017-Oct-18 07:00N 47°13' W 122°35'4 8.0
2017-Oct-18 06:30N 47°17' W 122°33'4 7.1
2017-Oct-18 06:00N 47°20' W 122°33'3 6.1
2017-Oct-18 05:30N 47°23' W 122°32'3 6.8
2017-Oct-18 05:00N 47°27' W 122°31'3 6.4
2017-Oct-18 04:30N 47°30' W 122°30'3 6.8
2017-Oct-18 04:00N 47°33' W 122°28'4 7.4
2017-Oct-18 03:30N 47°37' W 122°28'4 7.3
2017-Oct-18 03:00N 47°40' W 122°26'2 3.1
2017-Oct-18 02:30N 47°40' W 122°24'3 5.7
2017-Oct-18 02:00N 47°39' W 122°20'3 6.5
2017-Oct-18 01:28N 47°40' W 122°15'4 7.8
2017-Oct-18 01:00N 47°44' W 122°16'1 2.8
2017-Oct-18 00:30N 47°45' W 122°16'0 0.1
2017-Oct-18 00:00N 47°45' W 122°16'3 5.2
2017-Oct-17 23:30N 47°42' W 122°16'3 5.7
2017-Oct-17 23:00N 47°40' W 122°15'3 5.2
2017-Oct-17 22:29N 47°39' W 122°19'2 4.0
2017-Oct-17 22:00N 47°39' W 122°22'1 2.8
2017-Oct-17 21:30N 47°40' W 122°24'0 0.4
2017-Oct-17 21:00N 47°40' W 122°24'0 0.4
2017-Oct-17 20:30N 47°40' W 122°24'1 2.4
2017-Oct-17 20:00N 47°40' W 122°26'3 6.2
2017-Oct-17 19:30N 47°37' W 122°27'3 6.7
2017-Oct-17 19:00N 47°34' W 122°26'3 6.6
2017-Oct-17 18:30N 47°31' W 122°29'4 7.8
2017-Oct-17 18:00N 47°27' W 122°31'4 7.7
2017-Oct-17 17:30N 47°24' W 122°32'4 7.8
2017-Oct-17 17:00N 47°20' W 122°33'4 8.4
2017-Oct-17 16:30N 47°16' W 122°34'4 8.4
2017-Oct-17 16:00N 47°12' W 122°36'4 7.2
2017-Oct-17 15:26N 47°08' W 122°39'0 0.3
2017-Oct-17 15:00N 47°08' W 122°39'0 0.0
2017-Oct-17 14:30N 47°08' W 122°39'0 0.1
2017-Oct-17 14:00N 47°08' W 122°39'0 0.0
2017-Oct-17 13:29N 47°08' W 122°39'0 0.0
2017-Oct-17 13:00N 47°08' W 122°39'0 0.4
2017-Oct-17 12:23N 47°08' W 122°39'3 7.3
2017-Oct-17 12:00N 47°11' W 122°38'4 7.8
2017-Oct-17 11:30N 47°14' W 122°35'4 8.3
2017-Oct-17 11:00N 47°18' W 122°33'4 8.1
2017-Oct-17 10:30N 47°22' W 122°32'4 7.5
2017-Oct-17 10:00N 47°26' W 122°32'4 7.8
2017-Oct-17 09:30N 47°30' W 122°30'4 7.9
2017-Oct-17 09:00N 47°33' W 122°28'4 7.9
2017-Oct-17 08:30N 47°37' W 122°28'4 7.4
2017-Oct-17 08:00N 47°41' W 122°26'2 3.1
2017-Oct-17 07:30N 47°40' W 122°24'2 4.7
2017-Oct-17 07:01N 47°39' W 122°21'2 4.0
2017-Oct-17 06:30N 47°39' W 122°18'3 5.7
2017-Oct-17 06:00N 47°41' W 122°14'3 6.7
2017-Oct-17 05:30N 47°44' W 122°16'2 3.3
2017-Oct-17 05:00N 47°45' W 122°15'0 0.7
2017-Oct-17 04:30N 47°45' W 122°16'3 5.6
2017-Oct-17 04:00N 47°42' W 122°15'3 6.2
2017-Oct-17 03:29N 47°39' W 122°16'2 4.7
2017-Oct-17 02:59N 47°39' W 122°19'2 4.0
2017-Oct-17 02:30N 47°39' W 122°22'1 2.5
2017-Oct-17 02:00N 47°40' W 122°24'2 3.4
2017-Oct-17 01:30N 47°40' W 122°26'4 8.1
2017-Oct-17 01:00N 47°36' W 122°26'4 8.0
2017-Oct-17 00:30N 47°32' W 122°28'4 8.3
2017-Oct-17 00:00N 47°28' W 122°31'4 8.3
2017-Oct-16 23:30N 47°24' W 122°32'4 7.7
2017-Oct-16 23:00N 47°20' W 122°33'3 6.4
2017-Oct-16 22:30N 47°17' W 122°33'4 7.2
2017-Oct-16 22:00N 47°14' W 122°34'3 6.3
2017-Oct-16 21:29N 47°11' W 122°37'3 5.6
2017-Oct-16 20:55N 47°08' W 122°39'1 0.3
2017-Oct-16 19:01N 47°09' W 122°38'0 0.1
2017-Oct-16 18:30N 47°09' W 122°38'0 0.0
2017-Oct-16 17:49N 47°09' W 122°38'0 0.0
2017-Oct-16 17:30N 47°09' W 122°38'0 0.1
2017-Oct-16 17:00N 47°09' W 122°38'3 6.7
2017-Oct-16 16:30N 47°12' W 122°37'4 7.7
2017-Oct-16 16:00N 47°15' W 122°34'3 5.9
2017-Oct-16 15:30N 47°18' W 122°33'3 6.2
2017-Oct-16 15:00N 47°21' W 122°33'7 6.8
2017-Oct-16 14:00N 47°28' W 122°31'3 6.9
2017-Oct-16 13:30N 47°31' W 122°29'4 7.3
2017-Oct-16 13:00N 47°34' W 122°28'4 7.5
2017-Oct-16 12:31N 47°38' W 122°28'3 6.0
2017-Oct-16 12:00N 47°40' W 122°24'1 2.9
2017-Oct-16 11:30N 47°40' W 122°23'2 4.1
2017-Oct-16 11:00N 47°39' W 122°20'3 5.9
2017-Oct-16 10:30N 47°40' W 122°15'4 8.0
2017-Oct-16 10:00N 47°44' W 122°16'2 3.6
2017-Oct-16 09:30N 47°45' W 122°15'0 0.0
2017-Oct-16 09:00N 47°45' W 122°15'1 2.2
2017-Oct-16 08:30N 47°44' W 122°16'4 7.2
2017-Oct-16 08:00N 47°41' W 122°14'3 6.3
2017-Oct-16 07:30N 47°39' W 122°18'2 4.4
2017-Oct-16 07:00N 47°39' W 122°21'2 4.3
2017-Oct-16 06:30N 47°40' W 122°24'1 2.2
2017-Oct-16 06:00N 47°41' W 122°25'3 5.3
2017-Oct-16 05:30N 47°38' W 122°25'3 6.7
2017-Oct-16 05:00N 47°35' W 122°22'1 1.8
2017-Oct-16 04:20N 47°34' W 122°21'0 0.0
2017-Oct-16 03:59N 47°34' W 122°21'0 0.0
2017-Oct-16 03:23N 47°34' W 122°21'0 0.0
2017-Oct-16 03:00N 47°34' W 122°21'0 0.0
2017-Oct-16 02:29N 47°34' W 122°21'0 0.0
2017-Oct-16 02:00N 47°34' W 122°21'0 0.0
2017-Oct-16 01:28N 47°34' W 122°21'0 0.0
2017-Oct-16 00:54N 47°34' W 122°21'0 0.0
2017-Oct-16 00:26N 47°34' W 122°21'0 0.0
2017-Oct-15 23:49N 47°34' W 122°21'0 0.0
2017-Oct-15 23:29N 47°34' W 122°21'0 0.0
2017-Oct-15 22:59N 47°34' W 122°21'0 0.0
2017-Oct-15 22:26N 47°34' W 122°21'0 0.0
2017-Oct-15 22:00N 47°34' W 122°21'0 0.0
2017-Oct-15 21:30N 47°34' W 122°21'0 0.0
2017-Oct-15 21:00N 47°34' W 122°21'0 0.0
2017-Oct-15 20:30N 47°34' W 122°21'0 0.0
2017-Oct-15 19:59N 47°34' W 122°21'0 0.0
2017-Oct-15 19:30N 47°34' W 122°21'0 0.0
2017-Oct-15 19:00N 47°34' W 122°21'0 0.0
2017-Oct-15 18:25N 47°34' W 122°21'0 0.0
2017-Oct-15 18:01N 47°34' W 122°21'0 0.0
2017-Oct-15 17:30N 47°34' W 122°21'0 0.0
2017-Oct-15 17:00N 47°34' W 122°21'0 0.0
2017-Oct-15 16:28N 47°34' W 122°21'0 0.0
2017-Oct-15 16:00N 47°34' W 122°21'0 0.0
2017-Oct-15 15:29N 47°34' W 122°21'0 0.0
2017-Oct-15 15:00N 47°34' W 122°21'0 0.0
2017-Oct-15 14:00N 47°34' W 122°21'0 0.0
2017-Oct-15 13:30N 47°34' W 122°21'0 0.0
2017-Oct-15 13:01N 47°34' W 122°21'0 0.0
2017-Oct-15 12:30N 47°34' W 122°21'0 0.0
2017-Oct-15 12:01N 47°34' W 122°21'0 0.0
2017-Oct-15 11:31N 47°34' W 122°21'0 0.0
2017-Oct-15 11:00N 47°34' W 122°21'0 0.0
2017-Oct-15 10:29N 47°34' W 122°21'0 0.0
2017-Oct-15 10:01N 47°34' W 122°21'0 0.0
2017-Oct-15 09:31N 47°34' W 122°21'0 0.0
2017-Oct-15 09:00N 47°34' W 122°21'0 0.0
2017-Oct-15 08:30N 47°34' W 122°21'0 0.0
2017-Oct-15 08:00N 47°34' W 122°21'0 0.0
2017-Oct-15 07:30N 47°34' W 122°21'0 0.0
2017-Oct-15 07:00N 47°34' W 122°21'0 0.0
2017-Oct-15 06:30N 47°34' W 122°21'0 0.0
2017-Oct-15 06:00N 47°34' W 122°21'0 0.0
2017-Oct-15 05:30N 47°34' W 122°21'0 0.0
2017-Oct-15 05:00N 47°34' W 122°21'0 0.0
2017-Oct-15 04:28N 47°34' W 122°21'0 0.0
2017-Oct-15 04:00N 47°34' W 122°21'0 0.0
2017-Oct-15 03:27N 47°34' W 122°21'0 0.0
2017-Oct-15 02:59N 47°34' W 122°21'0 0.0
2017-Oct-15 02:30N 47°34' W 122°21'0 0.0
2017-Oct-15 02:00N 47°34' W 122°21'0 0.0
2017-Oct-15 01:30N 47°34' W 122°21'0 0.0
2017-Oct-15 01:00N 47°34' W 122°21'0 0.0
2017-Oct-15 00:30N 47°34' W 122°21'0 0.0
2017-Oct-15 00:00N 47°34' W 122°21'0 0.0
2017-Oct-14 23:30N 47°34' W 122°21'0 0.0
2017-Oct-14 23:00N 47°34' W 122°21'0 0.0
2017-Oct-14 22:30N 47°34' W 122°21'0 0.0
2017-Oct-14 22:00N 47°34' W 122°21'0 0.0
2017-Oct-14 21:30N 47°34' W 122°21'0 0.0
2017-Oct-14 21:00N 47°34' W 122°21'0 0.0
2017-Oct-14 20:30N 47°34' W 122°21'0 0.0
2017-Oct-14 20:01N 47°34' W 122°21'0 0.0
2017-Oct-14 19:31N 47°34' W 122°21'0 0.0
2017-Oct-14 19:00N 47°34' W 122°21'0 0.0
2017-Oct-14 18:30N 47°34' W 122°21'0 0.0
2017-Oct-14 18:00N 47°34' W 122°21'0 0.0
2017-Oct-14 17:28N 47°34' W 122°21'0 0.0
2017-Oct-14 17:00N 47°34' W 122°21'0 0.0
2017-Oct-14 16:22N 47°34' W 122°21'0 0.0
2017-Oct-14 16:00N 47°34' W 122°21'0 0.0
2017-Oct-14 15:30N 47°34' W 122°21'0 0.0
2017-Oct-14 14:58N 47°34' W 122°21'0 0.0
2017-Oct-14 14:30N 47°34' W 122°21'0 0.0
2017-Oct-14 14:00N 47°34' W 122°21'0 0.0
2017-Oct-14 13:31N 47°34' W 122°21'0 0.0
2017-Oct-14 13:00N 47°34' W 122°21'0 0.0
2017-Oct-14 12:30N 47°34' W 122°21'0 0.2
2017-Oct-14 12:01N 47°34' W 122°21'1 2.6
2017-Oct-14 11:30N 47°33' W 122°21'1 1.1
2017-Oct-14 11:00N 47°33' W 122°20'1 2.6
2017-Oct-14 10:30N 47°34' W 122°21'0 0.5
2017-Oct-14 10:00N 47°34' W 122°21'2 4.2
2017-Oct-14 09:30N 47°36' W 122°23'1 1.3
2017-Oct-14 09:01N 47°35' W 122°22'1 2.4
2017-Oct-14 08:31N 47°34' W 122°21'2 3.5
2017-Oct-14 08:00N 47°33' W 122°20'0 0.0
2017-Oct-14 07:30N 47°33' W 122°20'0 0.0
2017-Oct-14 07:00N 47°33' W 122°20'2 3.4
2017-Oct-14 06:31N 47°34' W 122°21'0 0.2
2017-Oct-14 06:00N 47°34' W 122°21'0 0.5
2017-Oct-14 05:31N 47°34' W 122°21'1 2.0
2017-Oct-14 05:00N 47°33' W 122°21'1 1.3
2017-Oct-14 04:30N 47°34' W 122°21'1 1.2
2017-Oct-14 04:00N 47°34' W 122°21'2 3.6
2017-Oct-14 03:30N 47°36' W 122°23'4 8.7
2017-Oct-14 03:00N 47°39' W 122°27'2 4.0
2017-Oct-14 02:31N 47°40' W 122°24'2 3.3
2017-Oct-14 02:00N 47°39' W 122°22'5 5.0
2017-Oct-14 00:58N 47°42' W 122°15'4 6.3
2017-Oct-14 00:24N 47°45' W 122°15'1 1.2
2017-Oct-13 23:34N 47°45' W 122°16'2 6.9
2017-Oct-13 23:17N 47°43' W 122°16'2 7.3
2017-Oct-13 23:00N 47°41' W 122°14'3 6.3
2017-Oct-13 22:30N 47°39' W 122°18'2 4.2
2017-Oct-13 22:00N 47°39' W 122°21'2 4.0
2017-Oct-13 21:31N 47°40' W 122°24'2 3.4
2017-Oct-13 21:00N 47°40' W 122°26'4 7.6
2017-Oct-13 20:31N 47°36' W 122°27'4 7.3
2017-Oct-13 20:00N 47°33' W 122°28'4 7.6
2017-Oct-13 19:30N 47°29' W 122°30'4 7.4
2017-Oct-13 19:00N 47°26' W 122°31'4 7.7
2017-Oct-13 18:31N 47°22' W 122°32'3 6.5
2017-Oct-13 18:00N 47°18' W 122°33'3 5.6
2017-Oct-13 17:30N 47°16' W 122°34'3 5.8
2017-Oct-13 17:00N 47°13' W 122°35'3 6.8
2017-Oct-13 16:30N 47°10' W 122°38'2 4.3
2017-Oct-13 16:00N 47°08' W 122°39'0 0.0
2017-Oct-13 15:30N 47°08' W 122°39'0 0.0
2017-Oct-13 14:37N 47°08' W 122°39'0 0.0
2017-Oct-13 13:57N 47°08' W 122°39'0 1.0
2017-Oct-13 13:29N 47°09' W 122°38'3 5.7
2017-Oct-13 13:01N 47°11' W 122°37'3 6.4
2017-Oct-13 12:31N 47°14' W 122°35'3 5.5
2017-Oct-13 12:00N 47°16' W 122°33'3 5.0
2017-Oct-13 11:30N 47°19' W 122°33'2 4.9
2017-Oct-13 11:01N 47°21' W 122°33'3 6.6
2017-Oct-13 10:30N 47°24' W 122°32'3 6.8
2017-Oct-13 10:01N 47°28' W 122°31'3 6.9
2017-Oct-13 09:30N 47°31' W 122°29'3 6.9
2017-Oct-13 09:00N 47°34' W 122°28'4 7.1
2017-Oct-13 08:30N 47°38' W 122°29'3 6.8
2017-Oct-13 08:00N 47°41' W 122°26'2 3.3
2017-Oct-13 07:30N 47°40' W 122°24'2 4.9
2017-Oct-13 07:00N 47°39' W 122°20'3 5.2
2017-Oct-13 06:31N 47°39' W 122°17'3 6.9
2017-Oct-13 06:00N 47°42' W 122°15'3 5.8
2017-Oct-13 05:30N 47°45' W 122°16'0 0.4
2017-Oct-13 05:00N 47°45' W 122°16'0 0.1
2017-Oct-13 04:30N 47°45' W 122°16'3 5.6
2017-Oct-13 04:00N 47°42' W 122°15'3 6.3
2017-Oct-13 03:30N 47°39' W 122°16'2 4.7
2017-Oct-13 03:00N 47°39' W 122°20'2 4.2
2017-Oct-13 02:30N 47°40' W 122°23'1 2.1
2017-Oct-13 01:57N 47°40' W 122°24'1 2.5
2017-Oct-13 01:30N 47°40' W 122°26'4 7.1
2017-Oct-13 01:00N 47°37' W 122°27'4 7.2
2017-Oct-13 00:31N 47°33' W 122°28'4 7.6
2017-Oct-13 00:00N 47°30' W 122°29'4 8.2
2017-Oct-12 23:30N 47°26' W 122°31'4 7.9
2017-Oct-12 23:00N 47°22' W 122°32'4 8.2
2017-Oct-12 22:30N 47°18' W 122°33'4 9.0
2017-Oct-12 22:00N 47°14' W 122°35'6 7.5
2017-Oct-12 21:12N 47°08' W 122°39'0 0.8
2017-Oct-12 20:59N 47°08' W 122°39'0 0.0
2017-Oct-12 20:25N 47°08' W 122°39'0 0.0
2017-Oct-12 20:00N 47°08' W 122°39'0 0.1
2017-Oct-12 19:28N 47°08' W 122°39'0 0.0
2017-Oct-12 18:57N 47°08' W 122°39'0 0.0
2017-Oct-12 18:02N 47°08' W 122°39'0 0.3
2017-Oct-12 17:44N 47°08' W 122°39'1 3.1
2017-Oct-12 17:27N 47°09' W 122°39'4 8.0
2017-Oct-12 17:00N 47°12' W 122°36'611.3
2017-Oct-12 16:30N 47°17' W 122°33'5 9.1
2017-Oct-12 16:00N 47°22' W 122°32'4 7.7
2017-Oct-12 15:31N 47°26' W 122°32'4 8.1
2017-Oct-12 15:00N 47°29' W 122°30'4 8.4
2017-Oct-12 14:31N 47°33' W 122°28'4 8.6
2017-Oct-12 14:00N 47°38' W 122°28'3 6.8
2017-Oct-12 13:31N 47°41' W 122°25'1 2.2
2017-Oct-12 13:00N 47°40' W 122°23'3 5.0
2017-Oct-12 12:30N 47°39' W 122°20'3 5.5
2017-Oct-12 12:00N 47°39' W 122°16'4 7.0
2017-Oct-12 11:30N 47°42' W 122°16'3 5.4
2017-Oct-12 10:57N 47°45' W 122°15'0 1.1
2017-Oct-12 10:30N 47°45' W 122°16'0 0.1
2017-Oct-12 10:00N 47°45' W 122°16'3 6.0
2017-Oct-12 09:30N 47°42' W 122°15'3 6.4
2017-Oct-12 09:00N 47°39' W 122°16'2 5.0
2017-Oct-12 08:30N 47°39' W 122°20'2 4.3
2017-Oct-12 08:00N 47°40' W 122°23'1 1.9
2017-Oct-12 07:31N 47°40' W 122°24'2 3.2
2017-Oct-12 07:01N 47°40' W 122°26'4 7.6
2017-Oct-12 06:30N 47°37' W 122°24'2 3.6
2017-Oct-12 06:00N 47°35' W 122°22'0 0.0
2017-Oct-12 05:30N 47°35' W 122°22'0 0.0
2017-Oct-12 05:00N 47°35' W 122°22'1 1.8
2017-Oct-12 04:30N 47°34' W 122°21'0 0.0
2017-Oct-12 04:00N 47°34' W 122°21'0 0.0
2017-Oct-12 03:30N 47°34' W 122°21'0 0.0
2017-Oct-12 02:59N 47°34' W 122°21'0 0.0
2017-Oct-12 02:30N 47°34' W 122°21'0 0.0
2017-Oct-12 02:00N 47°34' W 122°21'0 0.0
2017-Oct-12 01:30N 47°34' W 122°21'0 0.0
2017-Oct-12 01:00N 47°34' W 122°21'0 0.0
2017-Oct-12 00:30N 47°34' W 122°21'0 0.0
2017-Oct-12 00:00N 47°34' W 122°21'0 0.4
2017-Oct-11 23:30N 47°34' W 122°21'0 0.4
2017-Oct-11 23:00N 47°34' W 122°21'0 0.0
2017-Oct-11 22:31N 47°34' W 122°21'1 1.1
2017-Oct-11 22:00N 47°35' W 122°22'0 0.8
2017-Oct-11 21:31N 47°35' W 122°22'2 3.2
2017-Oct-11 21:00N 47°36' W 122°24'3 6.9
2017-Oct-11 20:31N 47°33' W 122°27'4 7.5
2017-Oct-11 20:01N 47°29' W 122°30'4 7.9
2017-Oct-11 19:30N 47°25' W 122°31'4 7.4
2017-Oct-11 19:01N 47°22' W 122°32'4 7.0
2017-Oct-11 18:30N 47°18' W 122°33'3 6.4
2017-Oct-11 18:00N 47°15' W 122°34'3 6.0
2017-Oct-11 17:30N 47°12' W 122°36'3 6.8
2017-Oct-11 17:00N 47°10' W 122°38'32 1.9
2017-Oct-11 00:00N 47°40' W 122°24'0 0.6
2017-Oct-10 23:30N 47°40' W 122°23'0 0.0
2017-Oct-10 23:01N 47°40' W 122°23'1 1.1
2017-Oct-10 22:30N 47°40' W 122°24'1 2.9
2017-Oct-10 22:01N 47°40' W 122°26'3 6.8
2017-Oct-10 21:30N 47°37' W 122°27'4 7.1
2017-Oct-10 21:01N 47°34' W 122°27'4 7.5
2017-Oct-10 20:30N 47°30' W 122°29'4 8.0
2017-Oct-10 20:00N 47°26' W 122°31'4 7.6
2017-Oct-10 19:31N 47°23' W 122°32'4 7.7
2017-Oct-10 19:00N 47°19' W 122°33'4 8.0
2017-Oct-10 18:28N 47°15' W 122°34'4 7.6
2017-Oct-10 18:00N 47°12' W 122°37'4 5.9
2017-Oct-10 17:22N 47°08' W 122°39'0 0.0
2017-Oct-10 16:51N 47°08' W 122°39'0 0.1
2017-Oct-10 16:18N 47°08' W 122°39'0 0.0
2017-Oct-10 15:57N 47°08' W 122°39'0 0.1
2017-Oct-10 15:29N 47°08' W 122°39'0 0.2
2017-Oct-10 15:00N 47°08' W 122°39'0 0.4
2017-Oct-10 13:55N 47°09' W 122°38'0 0.1
2017-Oct-10 13:30N 47°09' W 122°38'0 0.1
2017-Oct-10 12:53N 47°09' W 122°38'0 0.0
2017-Oct-10 12:30N 47°09' W 122°38'0 0.1
2017-Oct-10 11:58N 47°09' W 122°38'2 4.1
2017-Oct-10 11:30N 47°11' W 122°38'4 7.7
2017-Oct-10 11:00N 47°14' W 122°35'4 8.2
2017-Oct-10 10:29N 47°18' W 122°33'3 6.5
2017-Oct-10 10:00N 47°21' W 122°33'3 6.1
2017-Oct-10 09:31N 47°24' W 122°32'3 6.4
2017-Oct-10 09:00N 47°27' W 122°32'3 6.5
2017-Oct-10 08:30N 47°30' W 122°30'3 6.8
2017-Oct-10 08:01N 47°33' W 122°28'4 7.8
2017-Oct-10 07:30N 47°37' W 122°28'4 7.7
2017-Oct-10 07:01N 47°41' W 122°26'1 3.0
2017-Oct-10 06:30N 47°40' W 122°24'2 4.9
2017-Oct-10 06:00N 47°39' W 122°21'2 4.9
2017-Oct-10 05:30N 47°39' W 122°17'4 7.0
2017-Oct-10 05:00N 47°42' W 122°15'3 5.9
2017-Oct-10 04:30N 47°45' W 122°16'0 0.2
2017-Oct-10 04:00N 47°45' W 122°16'0 0.1
2017-Oct-10 03:29N 47°45' W 122°16'3 5.4
2017-Oct-10 02:59N 47°42' W 122°15'3 6.3
2017-Oct-10 02:30N 47°39' W 122°16'2 5.0
2017-Oct-10 02:00N 47°39' W 122°19'2 4.1
2017-Oct-10 01:30N 47°39' W 122°22'1 2.4
2017-Oct-10 01:01N 47°40' W 122°24'2 3.8
2017-Oct-10 00:31N 47°39' W 122°27'4 7.2
2017-Oct-10 00:00N 47°36' W 122°26'4 7.1
2017-Oct-09 23:31N 47°32' W 122°27'4 7.6
2017-Oct-09 23:00N 47°29' W 122°30'4 7.6
2017-Oct-09 22:30N 47°25' W 122°31'4 7.7
2017-Oct-09 22:00N 47°21' W 122°32'4 7.6
2017-Oct-09 21:28N 47°17' W 122°33'4 8.5
2017-Oct-09 21:00N 47°14' W 122°35'4 8.0
2017-Oct-09 20:30N 47°10' W 122°38'2 3.3
2017-Oct-09 19:47N 47°08' W 122°39'0 0.0
2017-Oct-09 19:27N 47°08' W 122°39'0 0.0
2017-Oct-09 18:35N 47°08' W 122°39'0 0.2
2017-Oct-09 18:21N 47°08' W 122°39'0 0.0
2017-Oct-09 18:00N 47°08' W 122°39'0 0.7
2017-Oct-09 17:29N 47°08' W 122°38'4 7.6
2017-Oct-09 17:00N 47°12' W 122°36'4 8.1
2017-Oct-09 16:30N 47°16' W 122°34'4 7.3
2017-Oct-09 16:00N 47°19' W 122°34'4 8.5
2017-Oct-09 15:30N 47°23' W 122°32'4 8.0
2017-Oct-09 15:01N 47°27' W 122°31'4 8.7
2017-Oct-09 14:30N 47°31' W 122°29'5 9.3
2017-Oct-09 14:00N 47°35' W 122°25'2 4.8
2017-Oct-09 13:31N 47°35' W 122°22'1 2.7
2017-Oct-09 13:00N 47°34' W 122°21'1 2.3
2017-Oct-09 12:31N 47°33' W 122°20'0 0.2
2017-Oct-09 12:01N 47°33' W 122°20'1 1.7
2017-Oct-09 11:30N 47°34' W 122°21'  

Dump ship's entire track history